Terminal Aerodrome Forecast
Issued by NWS Charleston, WV

Current Version | Previous Version | Text Only | Print | Product List | Glossary Off
Versions: 1 2 3 4 5 6 7 8 9 10 11 12 13 14 15 16 17 18 19 20 21 22 23 24 25 26

000
FTUS41 KRLX 040538
TAFHTS
TAF
KHTS 040538Z 0406/0506 00000KT 1SM BR OVC007
     FM041200 00000KT 4SM BR OVC004
     FM041400 00000KT P6SM BKN015
     FM041700 VRB03KT P6SM BKN030
     FM042100 30004KT P6SM SCT040
     FM050300 00000KT 6SM BR SCT045
     FM050500 00000KT 5SM BR SCT200=

USA.gov is the U.S. government's official web portal to all federal, state and local government web resources and services.